createdAt,value
2018-11-23T00:01:01.285Z,92.00
2018-11-23T00:03:30.649Z,86.07
2018-11-23T00:06:00.314Z,91.33
2018-11-23T00:08:29.706Z,92.47
2018-11-23T00:10:58.979Z,94.20
2018-11-23T00:13:28.278Z,96.33
2018-11-23T00:15:57.577Z,88.37
2018-11-23T00:18:26.881Z,93.70
2018-11-23T00:20:56.721Z,84.13
2018-11-23T00:23:26.157Z,94.13
2018-11-23T00:25:55.465Z,87.80
2018-11-23T00:28:24.824Z,97.20
2018-11-23T00:30:54.134Z,93.93
2018-11-23T00:33:23.456Z,85.37
2018-11-23T00:35:53.711Z,94.93
2018-11-23T00:38:23.049Z,88.10
2018-11-23T00:40:52.330Z,91.87
2018-11-23T00:43:21.747Z,89.03
2018-11-23T00:45:51.064Z,98.10
2018-11-23T00:48:20.391Z,95.77
2018-11-23T00:50:49.728Z,98.30
2018-11-23T00:53:19.082Z,99.10
2018-11-23T00:55:48.997Z,90.87
2018-11-23T00:58:18.331Z,94.33
2018-11-23T01:00:47.644Z,96.97
2018-11-23T01:03:16.975Z,92.53
2018-11-23T01:05:46.264Z,94.47
2018-11-23T01:08:15.572Z,92.17
2018-11-23T01:10:44.883Z,95.80
2018-11-23T01:13:14.235Z,93.00
2018-11-23T01:15:44.117Z,98.03
2018-11-23T01:18:13.408Z,93.43
2018-11-23T01:20:42.723Z,92.47
2018-11-23T01:23:12.128Z,99.33
2018-11-23T01:25:41.425Z,96.73
2018-11-23T01:28:11.092Z,91.70
2018-11-23T01:30:41.577Z,92.73
2018-11-23T01:33:11.444Z,95.60
2018-11-23T01:35:40.767Z,98.30
2018-11-23T01:38:10.906Z,96.03
2018-11-23T01:40:40.218Z,102.73
2018-11-23T01:43:09.977Z,98.57
2018-11-23T01:45:40.787Z,99.40
2018-11-23T01:48:10.495Z,94.33
2018-11-23T01:50:39.804Z,92.40
2018-11-23T01:53:09.259Z,84.10
2018-11-23T01:55:38.587Z,96.67
2018-11-23T01:58:07.907Z,90.83
2018-11-23T02:00:37.279Z,93.37
2018-11-23T02:03:06.646Z,95.17
2018-11-23T02:05:36.041Z,92.27
2018-11-23T02:08:05.648Z,91.90
2018-11-23T02:10:35.073Z,91.43
2018-11-23T02:13:04.371Z,89.23
2018-11-23T02:15:33.793Z,89.80
2018-11-23T02:18:03.131Z,85.87
2018-11-23T02:20:32.415Z,90.07
2018-11-23T02:23:01.735Z,94.80
2018-11-23T02:25:31.064Z,91.57
2018-11-23T02:28:00.389Z,86.63
2018-11-23T02:30:29.718Z,94.17
2018-11-23T02:32:59.363Z,100.70
2018-11-23T02:35:28.681Z,94.33
2018-11-23T02:37:57.980Z,94.10
2018-11-23T02:40:27.306Z,88.13
2018-11-23T02:42:56.625Z,95.10
2018-11-23T02:45:25.976Z,101.97
2018-11-23T02:47:55.811Z,90.50
2018-11-23T02:50:25.187Z,95.33
2018-11-23T02:52:54.463Z,95.60
2018-11-23T02:55:23.999Z,97.93
2018-11-23T02:57:53.289Z,96.67
2018-11-23T03:00:23.928Z,99.23
2018-11-23T03:02:53.957Z,100.77
2018-11-23T03:05:24.379Z,96.47
2018-11-23T03:07:53.742Z,102.07
2018-11-23T03:10:23.915Z,92.77
2018-11-23T03:12:53.213Z,93.60
2018-11-23T03:15:23.285Z,107.67
2018-11-23T03:17:53.434Z,98.00
2018-11-23T03:20:23.878Z,102.80
2018-11-23T03:22:53.179Z,97.67
2018-11-23T03:25:22.961Z,102.10
2018-11-23T03:27:52.297Z,95.43
2018-11-23T03:30:23.088Z,98.70
2018-11-23T03:32:53.730Z,104.87
2018-11-23T03:35:24.750Z,109.23
2018-11-23T03:37:54.064Z,100.90
2018-11-23T03:40:24.121Z,103.50
2018-11-23T03:42:53.453Z,99.70
2018-11-23T03:45:23.039Z,115.00
2018-11-23T03:47:53.353Z,103.87
2018-11-23T03:50:23.256Z,113.43
2018-11-23T03:52:52.571Z,114.43
2018-11-23T03:55:21.854Z,107.23
2018-11-23T03:57:51.179Z,106.57
2018-11-23T04:00:23.724Z,105.07
2018-11-23T04:02:53.912Z,109.63
2018-11-23T04:05:23.860Z,115.70
2018-11-23T04:07:53.484Z,115.43
2018-11-23T04:10:23.090Z,112.33
2018-11-23T04:12:52.522Z,116.83
2018-11-23T04:15:22.193Z,112.73
2018-11-23T04:17:52.092Z,124.17
2018-11-23T04:20:21.710Z,114.90
2018-11-23T04:22:51.370Z,116.20
2018-11-23T04:25:21.024Z,127.07
2018-11-23T04:27:54.629Z,110.97
2018-11-23T04:30:24.387Z,99.23
2018-11-23T04:32:54.715Z,113.17
2018-11-23T04:35:24.170Z,109.90
2018-11-23T04:37:53.579Z,112.17
2018-11-23T04:40:23.072Z,108.97
2018-11-23T04:42:52.474Z,114.60
2018-11-23T04:45:22.022Z,105.80
2018-11-23T04:47:52.150Z,111.17
2018-11-23T04:50:21.593Z,107.90
2018-11-23T04:52:51.310Z,106.67
2018-11-23T04:55:20.716Z,109.40
2018-11-23T04:57:58.654Z,109.27
2018-11-23T05:00:36.207Z,108.93
2018-11-23T05:03:15.513Z,111.17
2018-11-23T05:05:55.833Z,112.60
2018-11-23T05:08:33.777Z,118.53
2018-11-23T05:11:12.389Z,113.43
2018-11-23T05:13:50.520Z,108.00
2018-11-23T05:16:28.783Z,115.77
2018-11-23T05:19:07.374Z,114.93
2018-11-23T05:21:38.780Z,125.87
2018-11-23T05:24:17.244Z,111.97
2018-11-23T05:26:55.905Z,112.30
2018-11-23T05:29:25.534Z,131.43
2018-11-23T05:31:54.894Z,124.27
2018-11-23T05:34:24.226Z,127.33
2018-11-23T05:36:56.208Z,128.33
2018-11-23T05:39:25.673Z,127.23
2018-11-23T05:41:55.631Z,133.87
2018-11-23T05:44:24.947Z,117.53
2018-11-23T05:46:54.488Z,115.60
2018-11-23T05:49:23.886Z,118.30
2018-11-23T05:51:53.194Z,123.37
2018-11-23T05:54:23.294Z,121.93
2018-11-23T05:56:53.112Z,124.70
2018-11-23T05:59:22.528Z,122.77
2018-11-23T06:01:52.247Z,122.90
2018-11-23T06:04:21.640Z,123.03
2018-11-23T06:06:57.272Z,123.10
2018-11-23T06:09:26.945Z,137.97
2018-11-23T06:11:56.747Z,149.77
2018-11-23T06:14:26.399Z,144.70
2018-11-23T06:16:55.724Z,145.43
2018-11-23T06:19:25.660Z,149.53
2018-11-23T06:21:55.051Z,155.30
2018-11-23T06:24:31.778Z,151.27
2018-11-23T06:26:55.419Z,144.63
2018-11-23T06:29:26.421Z,156.57
2018-11-23T06:31:57.037Z,154.27
2018-11-23T06:34:25.907Z,155.80
2018-11-23T06:36:55.252Z,137.20
2018-11-23T06:39:24.781Z,148.13
2018-11-23T06:41:54.903Z,143.30
2018-11-23T06:44:31.173Z,155.63
2018-11-23T06:47:00.561Z,145.70
2018-11-23T06:49:29.968Z,141.57
2018-11-23T06:51:59.415Z,149.23
2018-11-23T06:54:29.528Z,163.47
2018-11-23T06:56:59.008Z,158.07
2018-11-23T06:59:28.810Z,152.37
2018-11-23T07:01:58.117Z,154.30
2018-11-23T07:04:28.187Z,160.43
2018-11-23T07:06:57.543Z,135.77
2018-11-23T07:09:27.495Z,131.07
2018-11-23T07:11:57.178Z,131.40
2018-11-23T07:14:26.756Z,136.00
2018-11-23T07:16:56.103Z,128.60
2018-11-23T07:19:25.745Z,123.43
2018-11-23T07:21:55.183Z,128.83
2018-11-23T07:24:24.523Z,131.83
2018-11-23T07:26:55.102Z,135.90
2018-11-23T07:29:24.450Z,132.07
2018-11-23T07:31:53.911Z,133.00
2018-11-23T07:34:23.255Z,130.90
2018-11-23T07:36:52.622Z,145.33
2018-11-23T07:39:32.979Z,132.07
2018-11-23T07:42:25.661Z,132.50
2018-11-23T07:44:55.585Z,130.07
2018-11-23T07:47:25.025Z,123.17
2018-11-23T07:49:54.357Z,141.00
2018-11-23T07:52:23.731Z,128.27
2018-11-23T07:54:53.100Z,147.00
2018-11-23T07:57:22.441Z,140.50
2018-11-23T07:59:52.138Z,139.77
2018-11-23T08:02:21.480Z,138.27
2018-11-23T08:04:50.877Z,143.63
2018-11-23T08:07:21.152Z,154.53
2018-11-23T08:09:49.681Z,148.20
2018-11-23T08:12:19.038Z,151.97
2018-11-23T08:14:48.387Z,149.87
2018-11-23T08:17:17.801Z,139.20
2018-11-23T08:19:47.532Z,145.30
2018-11-23T08:22:16.477Z,151.30
2018-11-23T08:24:46.666Z,139.97
2018-11-23T08:27:16.151Z,146.53
2018-11-23T08:29:45.457Z,142.10
2018-11-23T08:32:14.811Z,139.60
2018-11-23T08:34:44.163Z,148.47
2018-11-23T08:37:13.517Z,130.50
2018-11-23T08:39:43.084Z,140.10
2018-11-23T08:42:12.444Z,141.50
2018-11-23T08:44:41.804Z,144.77
2018-11-23T08:47:11.095Z,146.33
2018-11-23T08:49:40.443Z,137.53
2018-11-23T08:52:09.784Z,128.33
2018-11-23T08:54:40.270Z,129.93
2018-11-23T08:57:09.588Z,152.10
2018-11-23T08:59:38.982Z,132.43
2018-11-23T09:02:08.365Z,149.57
2018-11-23T09:04:37.703Z,139.03
2018-11-23T09:07:07.043Z,140.73
2018-11-23T09:09:36.888Z,137.23
2018-11-23T09:12:06.529Z,139.17
2018-11-23T09:14:36.415Z,140.67
2018-11-23T09:17:06.069Z,135.80
2018-11-23T09:19:36.012Z,137.83
2018-11-23T09:22:05.708Z,140.90
2018-11-23T09:24:35.538Z,138.40
2018-11-23T09:27:04.935Z,135.10
2018-11-23T09:29:35.228Z,128.93
2018-11-23T09:32:04.644Z,129.70
2018-11-23T09:34:34.434Z,132.43
2018-11-23T09:37:03.795Z,134.07
2018-11-23T09:39:33.173Z,130.83
2018-11-23T09:42:02.554Z,136.03
2018-11-23T09:44:31.896Z,129.13
2018-11-23T09:47:01.215Z,126.70
2018-11-23T09:49:30.586Z,138.67
2018-11-23T09:51:59.945Z,128.60
2018-11-23T09:54:29.236Z,123.53
2018-11-23T09:56:58.763Z,129.77
2018-11-23T09:59:28.105Z,133.13
2018-11-23T10:01:57.446Z,126.17
2018-11-23T10:04:26.816Z,146.17
2018-11-23T10:06:56.134Z,131.50
2018-11-23T10:09:25.439Z,128.67
2018-11-23T10:11:55.551Z,134.73
2018-11-23T10:14:24.930Z,133.37
2018-11-23T10:16:54.355Z,139.20
2018-11-23T10:19:28.963Z,118.20
2018-11-23T10:21:58.378Z,129.20
2018-11-23T10:24:27.695Z,130.50
2018-11-23T10:26:57.488Z,127.70
2018-11-23T10:29:26.847Z,134.67
2018-11-23T10:31:56.128Z,124.87
2018-11-23T10:34:25.453Z,136.13
2018-11-23T10:36:54.778Z,131.13
2018-11-23T10:39:24.163Z,127.80
2018-11-23T10:41:54.543Z,131.27
2018-11-23T10:44:23.904Z,130.07
2018-11-23T10:46:53.228Z,126.33
2018-11-23T10:49:22.547Z,125.27
2018-11-23T10:51:51.902Z,129.77
2018-11-23T10:54:21.188Z,129.43
2018-11-23T10:56:50.532Z,128.43
2018-11-23T10:59:19.889Z,118.37
2018-11-23T11:01:54.374Z,127.07
2018-11-23T11:04:28.880Z,127.27
2018-11-23T11:07:02.360Z,130.37
2018-11-23T11:09:31.681Z,115.00
2018-11-23T11:12:01.483Z,131.73
2018-11-23T11:14:30.800Z,128.80
2018-11-23T11:17:00.140Z,133.00
2018-11-23T11:19:29.438Z,122.90
2018-11-23T11:21:58.768Z,124.57
2018-11-23T11:24:28.110Z,132.23
2018-11-23T11:26:57.980Z,121.83
2018-11-23T11:29:27.293Z,120.17
2018-11-23T11:31:56.599Z,131.43
2018-11-23T11:34:25.955Z,126.37
2018-11-23T11:36:55.367Z,132.00
2018-11-23T11:39:24.703Z,119.20
2018-11-23T11:41:55.004Z,132.03
2018-11-23T11:44:25.179Z,136.33
2018-11-23T11:46:54.492Z,118.60
2018-11-23T11:49:23.838Z,124.63
2018-11-23T11:51:53.209Z,131.27
2018-11-23T11:54:22.508Z,124.70
2018-11-23T11:56:51.970Z,122.73
2018-11-23T11:59:21.301Z,117.07
2018-11-23T12:01:50.951Z,117.53
2018-11-23T12:04:20.372Z,124.43
2018-11-23T12:06:51.102Z,130.07
2018-11-23T12:09:20.900Z,111.93
2018-11-23T12:11:50.403Z,127.67
2018-11-23T12:14:19.887Z,111.93
2018-11-23T12:16:49.467Z,114.87
2018-11-23T12:19:18.806Z,129.87
2018-11-23T12:21:48.185Z,115.97
2018-11-23T12:24:17.540Z,121.27
2018-11-23T12:26:47.028Z,117.27
2018-11-23T12:29:16.362Z,115.13
2018-11-23T12:31:46.508Z,110.47
2018-11-23T12:34:15.862Z,112.63
2018-11-23T12:36:46.139Z,116.37
2018-11-23T12:39:15.453Z,111.53
2018-11-23T12:41:45.493Z,113.20
2018-11-23T12:44:14.828Z,108.67
2018-11-23T12:46:44.670Z,103.67
2018-11-23T12:49:14.013Z,121.73
2018-11-23T12:51:43.637Z,122.80
2018-11-23T12:54:12.975Z,113.73
2018-11-23T12:56:42.329Z,118.13
2018-11-23T12:59:11.651Z,108.73
2018-11-23T13:01:41.241Z,109.17
2018-11-23T13:04:11.475Z,107.23
2018-11-23T13:06:43.164Z,115.70
2018-11-23T13:09:15.986Z,118.03
2018-11-23T13:11:46.453Z,113.40
2018-11-23T13:14:15.743Z,113.63
2018-11-23T13:16:45.512Z,111.03
2018-11-23T13:19:14.853Z,116.43
2018-11-23T13:21:44.202Z,110.33
2018-11-23T13:24:13.532Z,115.43
2018-11-23T13:26:42.953Z,111.43
2018-11-23T13:29:16.296Z,127.27
2018-11-23T13:31:42.369Z,125.90
2018-11-23T13:34:15.939Z,116.17
2018-11-23T13:36:45.248Z,109.43
2018-11-23T13:39:14.676Z,112.80
2018-11-23T13:41:45.637Z,109.10
2018-11-23T13:44:15.011Z,118.63
2018-11-23T13:46:44.342Z,116.43
2018-11-23T13:49:13.819Z,119.40
2018-11-23T13:51:43.285Z,118.90
2018-11-23T13:54:13.246Z,120.40
2018-11-23T13:56:42.603Z,126.57
2018-11-23T13:59:12.257Z,122.07
2018-11-23T14:01:43.511Z,115.33
2018-11-23T14:04:12.837Z,107.23
2018-11-23T14:06:43.141Z,112.60
2018-11-23T14:09:18.229Z,111.20
2018-11-23T14:11:47.848Z,120.53
2018-11-23T14:14:17.238Z,118.03
2018-11-23T14:16:47.379Z,115.43
2018-11-23T14:19:17.055Z,119.80
2018-11-23T14:21:46.621Z,118.20
2018-11-23T14:24:18.850Z,105.97
2018-11-23T14:26:48.431Z,117.73
2018-11-23T14:29:17.739Z,116.63
2018-11-23T14:31:47.099Z,117.60
2018-11-23T14:34:17.375Z,117.33
2018-11-23T14:36:46.811Z,123.13
2018-11-23T14:39:18.700Z,118.10
2018-11-23T14:41:48.056Z,117.23
2018-11-23T14:44:18.661Z,114.00
2018-11-23T14:46:50.692Z,126.60
2018-11-23T14:49:20.232Z,126.97
2018-11-23T14:51:49.740Z,116.50
2018-11-23T14:54:19.062Z,122.97
2018-11-23T14:56:48.473Z,114.07
2018-11-23T14:59:17.872Z,127.13
2018-11-23T15:01:52.023Z,121.67
2018-11-23T15:04:16.578Z,125.17
2018-11-23T15:06:45.936Z,129.30
2018-11-23T15:09:15.326Z,119.73
2018-11-23T15:11:45.515Z,121.67
2018-11-23T15:14:14.863Z,125.63
2018-11-23T15:16:44.230Z,109.80
2018-11-23T15:19:13.604Z,117.37
2018-11-23T15:21:43.221Z,117.40
2018-11-23T15:24:12.587Z,115.07
2018-11-23T15:26:41.884Z,116.47
2018-11-23T15:29:11.242Z,125.97
2018-11-23T15:31:40.620Z,123.73
2018-11-23T15:34:09.969Z,122.13
2018-11-23T15:36:41.416Z,121.17
2018-11-23T15:39:12.446Z,127.40
2018-11-23T15:41:41.867Z,128.63
2018-11-23T15:44:11.255Z,125.93
2018-11-23T15:46:40.706Z,121.80
2018-11-23T15:49:11.050Z,132.07
2018-11-23T15:51:42.115Z,128.10
2018-11-23T15:54:11.590Z,115.60
2018-11-23T15:56:41.023Z,126.10
2018-11-23T15:59:10.493Z,129.17
2018-11-23T16:01:39.839Z,115.73
2018-11-23T16:04:09.255Z,131.67
2018-11-23T16:06:39.231Z,123.17
2018-11-23T16:09:12.007Z,129.00
2018-11-23T16:11:41.979Z,128.67
2018-11-23T16:14:11.386Z,123.67
2018-11-23T16:16:40.810Z,117.73
2018-11-23T16:19:10.219Z,131.87
2018-11-23T16:21:40.401Z,124.63
2018-11-23T16:24:09.772Z,130.77
2018-11-23T16:26:39.300Z,122.97
2018-11-23T16:29:08.702Z,121.33
2018-11-23T16:31:38.135Z,130.63
2018-11-23T16:34:07.509Z,128.93
2018-11-23T16:36:36.955Z,127.13
2018-11-23T16:39:09.551Z,128.33
2018-11-23T16:41:42.921Z,134.97
2018-11-23T16:44:12.284Z,125.43
2018-11-23T16:46:41.635Z,142.30
2018-11-23T16:49:10.971Z,132.17
2018-11-23T16:51:41.068Z,134.87
2018-11-23T16:54:10.421Z,130.43
2018-11-23T16:56:43.994Z,125.73
2018-11-23T16:59:13.421Z,142.17
2018-11-23T17:01:43.837Z,131.53
2018-11-23T17:04:13.137Z,137.90
2018-11-23T17:06:43.096Z,128.57
2018-11-23T17:09:12.436Z,143.30
2018-11-23T17:11:42.249Z,131.83
2018-11-23T17:14:12.563Z,135.70
2018-11-23T17:16:41.848Z,134.07
2018-11-23T17:19:11.291Z,141.90
2018-11-23T17:21:42.262Z,139.13
2018-11-23T17:24:12.236Z,139.03
2018-11-23T17:26:41.573Z,135.40
2018-11-23T17:29:10.968Z,143.20
2018-11-23T17:31:40.427Z,135.60
2018-11-23T17:34:09.761Z,132.73
2018-11-23T17:36:40.748Z,139.23
2018-11-23T17:39:10.506Z,135.27
2018-11-23T17:41:39.925Z,140.83
2018-11-23T17:44:09.268Z,139.60
2018-11-23T17:46:38.713Z,137.93
2018-11-23T17:49:08.382Z,133.77
2018-11-23T17:51:38.052Z,137.97
2018-11-23T17:54:08.010Z,138.47
2018-11-23T17:56:37.339Z,136.27
2018-11-23T17:59:07.595Z,131.13
2018-11-23T18:01:36.964Z,135.40
2018-11-23T18:04:07.009Z,143.57
2018-11-23T18:06:36.427Z,135.83
2018-11-23T18:09:08.084Z,141.20
2018-11-23T18:11:37.951Z,147.17
2018-11-23T18:14:08.215Z,135.40
2018-11-23T18:16:37.652Z,135.83
2018-11-23T18:19:07.289Z,144.50
2018-11-23T18:21:36.661Z,143.60
2018-11-23T18:24:06.997Z,144.23
2018-11-23T18:26:36.449Z,135.43
2018-11-23T18:29:05.779Z,142.53
2018-11-23T18:31:35.177Z,137.97
2018-11-23T18:34:04.588Z,145.07
2018-11-23T18:36:34.096Z,142.40
2018-11-23T18:39:03.896Z,129.73
2018-11-23T18:41:33.427Z,143.80
2018-11-23T18:44:03.258Z,143.30
2018-11-23T18:46:32.743Z,147.20
2018-11-23T18:49:02.179Z,134.43
2018-11-23T18:51:31.550Z,142.07
2018-11-23T18:54:01.412Z,152.80
2018-11-23T18:56:30.739Z,133.67
2018-11-23T18:59:00.207Z,152.57
2018-11-23T19:01:29.709Z,155.03
2018-11-23T19:03:59.076Z,144.27
2018-11-23T19:06:28.435Z,144.27
2018-11-23T19:08:58.786Z,150.97
2018-11-23T19:11:28.769Z,153.87
2018-11-23T19:13:58.189Z,153.10
2018-11-23T19:16:27.567Z,150.13
2018-11-23T19:18:57.067Z,152.27
2018-11-23T19:21:27.197Z,153.67
2018-11-23T19:23:58.056Z,158.97
2018-11-23T19:26:27.466Z,148.13
2018-11-23T19:28:56.975Z,156.03
2018-11-23T19:31:27.270Z,156.80
2018-11-23T19:33:59.475Z,153.53
2018-11-23T19:36:26.201Z,152.90
2018-11-23T19:38:56.204Z,165.20
2018-11-23T19:41:25.902Z,155.13
2018-11-23T19:43:55.263Z,167.50
2018-11-23T19:46:24.700Z,163.33
2018-11-23T19:48:54.095Z,158.67
2018-11-23T19:51:23.564Z,166.30
2018-11-23T19:53:53.184Z,150.03
2018-11-23T19:56:22.567Z,171.60
2018-11-23T19:58:52.649Z,162.23
2018-11-23T20:01:22.086Z,168.90
2018-11-23T20:03:51.481Z,167.13
2018-11-23T20:06:20.862Z,159.27
2018-11-23T20:08:50.290Z,180.97
2018-11-23T20:11:19.715Z,180.83
2018-11-23T20:13:49.114Z,171.83
2018-11-23T20:16:18.557Z,172.97
2018-11-23T20:18:48.023Z,181.90
2018-11-23T20:21:17.535Z,170.27
2018-11-23T20:23:46.966Z,160.83
2018-11-23T20:26:16.423Z,162.90
2018-11-23T20:28:45.768Z,153.13
2018-11-23T20:31:15.675Z,152.17
2018-11-23T20:33:45.019Z,152.77
2018-11-23T20:36:14.934Z,144.07
2018-11-23T20:38:44.416Z,161.13
2018-11-23T20:41:14.512Z,164.63
2018-11-23T20:43:43.823Z,161.93
2018-11-23T20:46:13.951Z,169.07
2018-11-23T20:48:43.651Z,179.60
2018-11-23T20:51:13.061Z,183.63
2018-11-23T20:53:42.572Z,149.70
2018-11-23T20:56:11.973Z,150.00
2018-11-23T20:58:41.366Z,148.73
2018-11-23T21:01:10.788Z,140.47
2018-11-23T21:03:41.563Z,128.80
2018-11-23T21:06:11.037Z,131.83
2018-11-23T21:08:41.117Z,132.40
2018-11-23T21:11:10.505Z,136.57
2018-11-23T21:13:40.005Z,140.00
2018-11-23T21:16:09.317Z,143.50
2018-11-23T21:18:39.870Z,137.90
2018-11-23T21:21:09.261Z,153.23
2018-11-23T21:23:38.611Z,135.03
2018-11-23T21:26:08.030Z,136.33
2018-11-23T21:28:37.375Z,131.87
2018-11-23T21:31:06.760Z,133.87
2018-11-23T21:33:36.121Z,138.90
2018-11-23T21:36:05.802Z,129.80
2018-11-23T21:38:35.244Z,125.90
2018-11-23T21:41:04.654Z,137.07
2018-11-23T21:43:33.995Z,137.83
2018-11-23T21:46:03.938Z,134.47
2018-11-23T21:48:33.962Z,143.30
2018-11-23T21:51:04.436Z,125.97
2018-11-23T21:53:34.530Z,144.13
2018-11-23T21:56:09.335Z,132.00
2018-11-23T21:58:33.358Z,137.03
2018-11-23T22:01:02.725Z,141.93
2018-11-23T22:03:32.229Z,153.00
2018-11-23T22:06:02.396Z,137.47
2018-11-23T22:08:31.841Z,137.83
2018-11-23T22:11:01.242Z,142.93
2018-11-23T22:13:30.611Z,157.77
2018-11-23T22:15:59.950Z,149.30
2018-11-23T22:18:29.293Z,180.37
2018-11-23T22:20:59.882Z,235.10
2018-11-23T22:23:29.285Z,307.17
2018-11-23T22:25:58.616Z,225.30
2018-11-23T22:28:28.045Z,588.83
2018-11-23T22:30:57.434Z,284.00
2018-11-23T22:33:26.766Z,230.07
2018-11-23T22:35:57.300Z,288.60
2018-11-23T22:38:26.798Z,297.00
2018-11-23T22:40:56.263Z,509.67
2018-11-23T22:43:25.658Z,327.40
2018-11-23T22:45:55.081Z,462.07
2018-11-23T22:48:24.427Z,213.33
2018-11-23T22:50:53.805Z,229.17
2018-11-23T22:53:23.477Z,187.40
2018-11-23T22:55:53.184Z,229.73
2018-11-23T22:58:23.128Z,609.10
2018-11-23T23:00:56.595Z,218.70
2018-11-23T23:03:26.010Z,194.53
2018-11-23T23:05:55.606Z,404.77
2018-11-23T23:08:25.024Z,314.27
2018-11-23T23:10:54.390Z,287.00
2018-11-23T23:13:24.412Z,219.53
2018-11-23T23:15:53.763Z,197.87
2018-11-23T23:18:23.535Z,207.90
2018-11-23T23:20:52.843Z,178.37
2018-11-23T23:23:22.528Z,177.93
2018-11-23T23:25:52.079Z,144.83
2018-11-23T23:28:22.218Z,144.30
2018-11-23T23:30:51.593Z,137.80
2018-11-23T23:33:20.970Z,195.33
2018-11-23T23:35:50.289Z,188.30
2018-11-23T23:38:19.678Z,191.93
2018-11-23T23:40:49.055Z,197.40
2018-11-23T23:43:18.411Z,188.87
2018-11-23T23:45:47.736Z,236.77
2018-11-23T23:48:17.077Z,228.57
2018-11-23T23:50:46.465Z,194.17
2018-11-23T23:53:15.799Z,238.67
2018-11-23T23:55:45.118Z,179.37
2018-11-23T23:58:14.551Z,201.30
